Portada
METAR-TAF:

METAR-TAF

Aeroports :

Chiang Rai, Tailàndia

latitud: 19-57-08N, longitud: 099-52-59E, altitud: 390 m

Observació

L'informe es va fer fa 27 minuts, a les 06:00 UTC
Vent 3 kt del Est
Temperatura 34°C
Humitat 34%
Pressió 1010 hPa
Visibilitat: 5000 m
calitja

METAR: VTCT 080600Z 10003KT 5000 HZ NSC 34/16 Q1010 NOSIG

Hora: 13:27 (06:27 UTC)

Pronòstic

L'informe es va fer fa 1 hora i 27 minuts, a les 05:00 UTC
Pronòstic vàlid del 08 a les 06 UTC al 09 a les 12 UTC
Vent 5 kt del Est
Visibilitat: 5000 m
calitja
Evolucionant progressivament
l' 08 a les 21 UTC al 08 a les 23 UTC
Visibilitat: 1500 m
boirina
Evolucionant progressivament
l' 09 a les 02 UTC al 09 a les 04 UTC
Visibilitat: 4000 m
Escasses núvols a una alçada de 3500 ft
calitja

TAF: VTCT 080500Z 0806/0912 09005KT 5000 HZ NSC BECMG 0821/0823 1500 BR BECMG 0902/0904 4000 HZ FEW035

Observacions i pronòstics meteorològics de més de 4000 aeroports (METAR i TAF).

Les estacions disponibles són els punts grocs i vermells al mapa.

Posi el ratolí al punt desitjat per veure el nom de l'estació.

Feu clic per veure les observacions i els pronòstics meteorològics.

Per canviar el mapa: feu clic els botons verds amb una creu de color negre per apropar; al botó verd amb un guió per allunyar la imatge; o en les fletxes verdes per a mapes adjacents.


METAR-TAF: